Time;durP1;ratioP1;P1;durP2;ratioP2;P2;SDS_P1;SDS_P2;PMS_P1;PMS_P2;Temp;Humidity;BMP_temperature;BMP_pressure;BME280_temperature;BME280_humidity;BME280_pressure;Samples;Min_cycle;Max_cycle;Signal;HPM_P1;HPM_P2
2022/03/06 00:00:58;;;;;;;25.50;12.07;;;;;;;-0.56;63.52;96396.69;4931801;29;20051;-79
2022/03/06 00:03:24;;;;;;;29.17;12.73;;;;;;;-0.58;63.67;96388.91;4932146;29;20530;-80
2022/03/06 00:05:51;;;;;;;27.30;12.25;;;;;;;-0.57;63.52;96389.72;4932222;29;20044;-79
2022/03/06 00:08:17;;;;;;;27.98;12.77;;;;;;;-0.61;63.78;96391.28;4931986;29;20397;-80
2022/03/06 00:10:44;;;;;;;28.33;13.20;;;;;;;-0.62;64.23;96392.34;4932124;29;20047;-80
2022/03/06 00:13:11;;;;;;;26.08;12.18;;;;;;;-0.65;64.51;96384.78;4931846;29;20055;-79
2022/03/06 00:15:38;;;;;;;31.90;12.95;;;;;;;-0.64;64.44;96384.53;4933212;29;20095;-78
2022/03/06 00:18:06;;;;;;;26.45;12.93;;;;;;;-0.64;64.34;96381.06;4934344;29;20060;-76
2022/03/06 00:20:34;;;;;;;29.00;13.35;;;;;;;-0.65;64.26;96377.56;4935931;29;20517;-78
2022/03/06 00:23:01;;;;;;;23.05;11.57;;;;;;;-0.63;64.33;96380.78;4931431;29;20135;-79
2022/03/06 00:25:27;;;;;;;27.17;13.65;;;;;;;-0.62;63.94;96387.78;4932598;29;20040;-78
2022/03/06 00:27:54;;;;;;;28.25;12.68;;;;;;;-0.64;63.80;96389.88;4932197;29;20047;-78
2022/03/06 00:30:22;;;;;;;25.75;13.32;;;;;;;-0.70;63.67;96387.38;4932368;29;20051;-79
2022/03/06 00:32:49;;;;;;;30.15;13.68;;;;;;;-0.77;63.93;96389.44;4932106;29;20044;-75
2022/03/06 00:35:17;;;;;;;28.75;12.57;;;;;;;-0.84;63.97;96406.44;4931651;29;20058;-77
2022/03/06 00:37:43;;;;;;;29.83;14.27;;;;;;;-0.89;64.16;96403.72;4932144;29;20048;-78
2022/03/06 00:40:11;;;;;;;28.90;13.95;;;;;;;-0.92;64.32;96393.50;4931167;29;20403;-79
2022/03/06 00:42:37;;;;;;;27.23;12.88;;;;;;;-0.94;64.48;96400.97;4932313;29;20051;-78
2022/03/06 00:45:05;;;;;;;26.80;12.65;;;;;;;-0.96;64.41;96392.34;4931226;29;20048;-79
2022/03/06 00:47:31;;;;;;;25.98;12.75;;;;;;;-0.97;64.29;96396.09;4932556;29;20058;-77
2022/03/06 00:49:59;;;;;;;24.48;12.30;;;;;;;-0.98;64.44;96399.81;4931581;29;20066;-77
2022/03/06 00:52:27;;;;;;;27.70;13.38;;;;;;;-0.99;64.67;96400.88;4931965;29;20064;-78
2022/03/06 00:54:54;;;;;;;27.98;12.77;;;;;;;-0.98;64.64;96401.69;4932209;29;20058;-79
2022/03/06 00:57:20;;;;;;;27.27;13.25;;;;;;;-0.98;64.55;96405.16;4931780;29;20056;-80
2022/03/06 00:59:47;;;;;;;27.38;13.02;;;;;;;-0.97;64.82;96401.44;4932821;29;20043;-80
2022/03/06 01:02:13;;;;;;;28.30;13.23;;;;;;;-0.99;64.99;96398.19;4934628;29;20549;-81
2022/03/06 01:04:41;;;;;;;24.48;12.70;;;;;;;-0.99;65.17;96392.84;4935742;29;20582;-79
2022/03/06 01:07:07;;;;;;;30.50;12.98;;;;;;;-0.98;65.28;96393.66;4934813;29;20071;-79
2022/03/06 01:09:36;;;;;;;30.02;14.25;;;;;;;-0.98;65.37;96401.69;4936210;29;20048;-80
2022/03/06 01:12:03;;;;;;;27.45;13.35;;;;;;;-1.01;65.56;96389.59;4934784;29;20055;-80
2022/03/06 01:14:30;;;;;;;29.70;13.27;;;;;;;-1.01;65.62;96386.13;4935875;29;20070;-82
2022/03/06 01:16:56;;;;;;;31.27;14.10;;;;;;;-1.02;65.84;96393.34;4935161;29;20047;-77
2022/03/06 01:19:23;;;;;;;32.42;14.43;;;;;;;-1.05;65.84;96399.16;4926423;29;20048;-78
2022/03/06 01:21:50;;;;;;;29.52;13.50;;;;;;;-1.05;65.94;96394.59;4934863;29;20052;-77
2022/03/06 01:24:17;;;;;;;28.70;14.18;;;;;;;-1.08;66.03;96399.66;4934110;29;20444;-79
2022/03/06 01:26:45;;;;;;;27.83;13.30;;;;;;;-1.12;66.34;96399.31;4935209;29;20047;-77
2022/03/06 01:29:11;;;;;;;31.35;14.52;;;;;;;-1.13;66.77;96396.91;4933888;29;20047;-79
2022/03/06 01:31:38;;;;;;;31.42;15.20;;;;;;;-1.14;67.12;96401.44;4935444;29;20040;-79
2022/03/06 01:34:05;;;;;;;32.70;14.27;;;;;;;-1.16;67.25;96394.69;4933871;29;20106;-79
2022/03/06 01:36:32;;;;;;;29.85;14.48;;;;;;;-1.21;67.78;96394.63;4935019;29;20075;-78
2022/03/06 01:38:59;;;;;;;29.85;13.82;;;;;;;-1.24;68.67;96393.25;4934093;29;20056;-78
2022/03/06 01:41:26;;;;;;;31.00;14.25;;;;;;;-1.24;68.58;96389.78;4934372;29;20048;-78
2022/03/06 01:43:54;;;;;;;27.58;13.25;;;;;;;-1.24;68.88;96389.78;4934343;29;20522;-83
2022/03/06 01:46:21;;;;;;;29.55;13.68;;;;;;;-1.24;68.56;96393.25;4933984;29;20059;-83
2022/03/06 01:48:47;;;;;;;29.63;14.50;;;;;;;-1.24;68.59;96382.56;4934654;29;20719;-76
2022/03/06 01:51:14;;;;;;;29.35;13.85;;;;;;;-1.27;68.58;96379.56;4933787;29;20050;-77
2022/03/06 01:53:41;;;;;;;34.78;14.75;;;;;;;-1.24;68.72;96379.09;4934856;29;20646;-79
2022/03/06 01:56:09;;;;;;;30.92;14.98;;;;;;;-1.26;68.78;96378.50;4933504;29;20048;-79
2022/03/06 01:58:35;;;;;;;28.50;13.40;;;;;;;-1.24;68.68;96384.44;4935099;29;20059;-77
2022/03/06 02:01:04;;;;;;;31.33;14.90;;;;;;;-1.26;68.69;96381.16;4933498;29;20051;-80
2022/03/06 02:03:30;;;;;;;29.02;13.88;;;;;;;-1.23;68.80;96375.34;4934596;29;20036;-77
2022/03/06 02:05:57;;;;;;;30.88;14.35;;;;;;;-1.20;68.46;96385.53;4934243;29;20055;-77
2022/03/06 02:08:24;;;;;;;29.08;13.85;;;;;;;-1.20;68.15;96380.19;4933604;29;20047;-78
2022/03/06 02:10:51;;;;;;;27.80;13.15;;;;;;;-1.18;68.00;96383.47;4934574;29;20417;-80
2022/03/06 02:13:18;;;;;;;28.58;14.35;;;;;;;-1.19;67.70;96382.66;4932471;29;20048;-80
2022/03/06 02:15:45;;;;;;;31.00;13.98;;;;;;;-1.18;67.61;96381.59;4934526;29;20063;-79
2022/03/06 02:18:13;;;;;;;31.65;14.20;;;;;;;-1.17;67.59;96379.72;4932974;29;20055;-76
2022/03/06 02:20:39;;;;;;;28.48;14.07;;;;;;;-1.16;67.60;96378.66;4934702;29;20357;-78
2022/03/06 02:23:07;;;;;;;29.25;13.73;;;;;;;-1.16;67.85;96376.00;4933198;29;20126;-76
2022/03/06 02:25:36;;;;;;;25.85;13.43;;;;;;;-1.16;67.75;96376.00;4937632;29;20584;-79
2022/03/06 02:28:06;;;;;;;28.42;14.02;;;;;;;-1.14;67.75;96371.22;4936931;29;20051;-76
2022/03/06 02:30:35;;;;;;;28.85;14.35;;;;;;;-1.14;67.90;96381.91;4934029;29;20055;-80
2022/03/06 02:33:04;;;;;;;30.48;14.40;;;;;;;-1.14;67.64;96379.25;4933634;29;20048;-78
2022/03/06 02:35:32;;;;;;;29.08;13.63;;;;;;;-1.16;67.38;96381.34;4933429;29;20048;-77
2022/03/06 02:37:59;;;;;;;27.10;13.43;;;;;;;-1.15;67.64;96385.63;4934019;29;20055;-80
2022/03/06 02:40:27;;;;;;;30.77;14.05;;;;;;;-1.18;67.72;96386.13;4932532;29;20043;-76
2022/03/06 02:42:55;;;;;;;29.00;14.70;;;;;;;-1.20;67.66;96385.53;4933857;29;20495;-79
2022/03/06 02:45:24;;;;;;;38.78;15.55;;;;;;;-1.20;67.94;96390.88;4932669;29;21575;-77
2022/03/06 02:47:51;;;;;;;28.30;13.55;;;;;;;-1.22;67.82;96390.31;4933879;29;20043;-79
2022/03/06 02:50:20;;;;;;;28.25;13.63;;;;;;;-1.24;67.82;96395.13;4932955;29;20059;-76
2022/03/06 02:52:47;;;;;;;30.02;14.73;;;;;;;-1.29;67.72;96393.16;4933711;29;20527;-76
2022/03/06 02:55:16;;;;;;;26.35;13.10;;;;;;;-1.26;67.97;96397.19;4934028;29;20047;-79
2022/03/06 02:57:44;;;;;;;32.47;14.30;;;;;;;-1.27;67.69;96390.25;4932918;29;20047;-78
2022/03/06 03:00:14;;;;;;;29.60;13.90;;;;;;;-1.28;67.59;96381.41;4933249;29;20070;-80
2022/03/06 03:02:41;;;;;;;31.63;14.95;;;;;;;-1.27;67.43;96383.03;4932920;29;20070;-79
2022/03/06 03:05:10;;;;;;;27.65;13.95;;;;;;;-1.28;67.42;96384.09;4933138;29;20052;-77
2022/03/06 03:07:38;;;;;;;31.35;14.45;;;;;;;-1.29;67.25;96387.00;4932539;29;20041;-78
2022/03/06 03:10:05;;;;;;;28.55;13.77;;;;;;;-1.30;67.23;96385.41;4932850;29;20062;-79
2022/03/06 03:12:32;;;;;;;28.13;14.30;;;;;;;-1.33;67.24;96392.81;4932523;29;20447;-78
2022/03/06 03:15:00;;;;;;;30.25;14.38;;;;;;;-1.33;67.08;96394.69;4932987;29;20607;-77
2022/03/06 03:17:26;;;;;;;32.42;13.68;;;;;;;-1.35;66.89;96399.47;4932446;29;20044;-77
2022/03/06 03:19:53;;;;;;;27.95;13.38;;;;;;;-1.39;67.11;96398.34;4932349;29;20507;-79
2022/03/06 03:22:19;;;;;;;29.75;13.45;;;;;;;-1.42;67.11;96399.59;4932483;29;20070;-80
2022/03/06 03:24:45;;;;;;;34.10;14.48;;;;;;;-1.44;67.15;96392.91;4932280;29;20040;-78
2022/03/06 03:27:12;;;;;;;32.05;14.10;;;;;;;-1.44;67.30;96407.06;4932877;29;20503;-77
2022/03/06 03:29:38;;;;;;;26.67;14.13;;;;;;;-1.45;67.50;96404.66;4932268;29;20047;-77
2022/03/06 03:32:08;;;;;;;32.83;13.60;;;;;;;-1.45;67.80;96405.44;4932639;29;20043;-78
2022/03/06 03:34:34;;;;;;;29.27;12.75;;;;;;;-1.42;68.01;96404.94;4932601;29;20499;-78
2022/03/06 03:37:01;;;;;;;31.63;14.20;;;;;;;-1.43;68.19;96403.34;4932731;29;20668;-77
2022/03/06 03:39:28;;;;;;;28.83;13.80;;;;;;;-1.42;68.64;96404.94;4932543;29;20407;-80
2022/03/06 03:41:54;;;;;;;28.92;13.57;;;;;;;-1.40;68.53;96407.41;4928512;29;20052;-77
2022/03/06 03:44:21;;;;;;;30.63;14.18;;;;;;;-1.40;68.42;96408.22;4931881;29;20527;-78
2022/03/06 03:46:48;;;;;;;28.30;13.80;;;;;;;-1.38;68.58;96415.97;4932827;29;20413;-77
2022/03/06 03:49:16;;;;;;;32.35;14.13;;;;;;;-1.36;68.54;96414.69;4932727;29;20070;-77
2022/03/06 03:51:43;;;;;;;31.10;14.20;;;;;;;-1.33;68.49;96416.06;4931341;29;20719;-78
2022/03/06 03:54:10;;;;;;;29.35;13.50;;;;;;;-1.35;68.73;96421.66;4931875;29;20053;-77
2022/03/06 03:56:36;;;;;;;29.25;14.02;;;;;;;-1.35;69.09;96421.66;4931680;29;20043;-78
2022/03/06 03:59:03;;;;;;;28.50;13.27;;;;;;;-1.32;69.20;96421.16;4932088;29;20059;-77
2022/03/06 04:01:30;;;;;;;31.20;13.35;;;;;;;-1.30;68.94;96428.16;4932320;29;20040;-77
2022/03/06 04:03:56;;;;;;;30.50;13.20;;;;;;;-1.34;69.04;96431.28;4930329;29;20062;-78
2022/03/06 04:06:24;;;;;;;26.75;12.30;;;;;;;-1.27;68.97;96427.66;4931071;29;20054;-78
2022/03/06 04:08:51;;;;;;;28.13;13.68;;;;;;;-1.23;68.60;96444.81;4931994;29;20048;-78
2022/03/06 04:11:17;;;;;;;29.55;13.45;;;;;;;-1.23;69.28;96439.47;4931500;29;20523;-77
2022/03/06 04:13:44;;;;;;;31.38;13.52;;;;;;;-1.18;68.76;96436.91;4931524;29;20082;-78
2022/03/06 04:16:10;;;;;;;28.85;13.63;;;;;;;-1.16;68.66;96437.44;4932409;29;20047;-80
2022/03/06 04:18:37;;;;;;;30.33;13.75;;;;;;;-1.15;68.46;96436.41;4931804;29;20070;-81
2022/03/06 04:21:04;;;;;;;25.27;11.77;;;;;;;-1.17;68.21;96433.97;4931999;29;20051;-78
2022/03/06 04:23:31;;;;;;;26.20;12.50;;;;;;;-1.26;68.05;96437.28;4931505;29;20044;-76
2022/03/06 04:25:58;;;;;;;31.58;12.52;;;;;;;-1.23;67.80;96440.28;4932951;29;20040;-78
2022/03/06 04:28:24;;;;;;;29.45;12.65;;;;;;;-1.18;67.52;96439.56;4937405;29;20044;-77
2022/03/06 04:30:51;;;;;;;32.00;12.82;;;;;;;-1.16;67.03;96435.59;4933096;29;20452;-77
2022/03/06 04:33:17;;;;;;;30.98;13.73;;;;;;;-1.15;66.70;96441.75;4932137;29;20051;-76
2022/03/06 04:35:44;;;;;;;26.17;12.55;;;;;;;-1.14;66.42;96443.38;4934232;29;20055;-77
2022/03/06 04:38:10;;;;;;;25.92;12.43;;;;;;;-1.17;66.20;96441.19;4935965;29;20052;-78
2022/03/06 04:40:38;;;;;;;30.60;13.60;;;;;;;-1.20;66.25;96449.66;4934433;29;20051;-77
2022/03/06 04:43:05;;;;;;;27.55;13.00;;;;;;;-1.24;66.19;96457.38;4935419;29;20411;-76
2022/03/06 04:45:31;;;;;;;29.70;13.90;;;;;;;-1.26;66.25;96448.78;4934897;29;20055;-78
2022/03/06 04:47:58;;;;;;;28.13;12.52;;;;;;;-1.28;66.70;96453.56;4935678;29;20047;-78
2022/03/06 04:50:24;;;;;;;29.10;13.50;;;;;;;-1.29;66.66;96453.81;4934713;29;20043;-76
2022/03/06 04:52:51;;;;;;;29.10;13.05;;;;;;;-1.33;66.79;96451.59;4935074;29;20083;-81
2022/03/06 04:55:17;;;;;;;26.20;12.43;;;;;;;-1.36;67.10;96457.44;4934586;29;20050;-79
2022/03/06 04:57:46;;;;;;;31.73;13.48;;;;;;;-1.37;67.51;96458.47;4935007;29;20043;-77
2022/03/06 05:00:14;;;;;;;31.70;14.50;;;;;;;-1.40;67.55;96450.13;4935223;29;20519;-77
2022/03/06 05:02:41;;;;;;;30.42;12.70;;;;;;;-1.43;67.66;96451.41;4936069;29;20052;-78
2022/03/06 05:05:09;;;;;;;28.10;12.75;;;;;;;-1.42;67.74;96453.03;4936520;29;20396;-76
2022/03/06 05:07:36;;;;;;;29.35;14.13;;;;;;;-1.43;67.49;96451.41;4934827;29;20055;-79
2022/03/06 05:10:02;;;;;;;28.55;12.80;;;;;;;-1.45;67.72;96453.53;4935275;29;20051;-76
2022/03/06 05:12:29;;;;;;;27.63;13.30;;;;;;;-1.45;67.50;96448.19;4934541;29;20625;-76
2022/03/06 05:14:57;;;;;;;27.70;13.15;;;;;;;-1.46;67.53;96449.25;4935008;29;20049;-77
2022/03/06 05:17:23;;;;;;;28.10;13.45;;;;;;;-1.49;67.62;96455.03;4934481;29;20044;-78
2022/03/06 05:19:50;;;;;;;30.88;12.90;;;;;;;-1.51;67.85;96451.81;4934526;29;20047;-80
2022/03/06 05:22:16;;;;;;;29.73;13.27;;;;;;;-1.53;67.88;96450.41;4935110;29;20048;-77
2022/03/06 05:24:43;;;;;;;31.38;13.60;;;;;;;-1.53;67.81;96456.56;4933747;29;20047;-77
2022/03/06 05:27:10;;;;;;;30.42;13.43;;;;;;;-1.54;67.79;96454.94;4935111;29;20065;-78
2022/03/06 05:29:36;;;;;;;29.55;13.10;;;;;;;-1.53;67.76;96459.25;4934225;29;20054;-77
2022/03/06 05:32:05;;;;;;;26.27;13.10;;;;;;;-1.53;67.54;96456.56;4934650;29;20388;-78
2022/03/06 05:34:32;;;;;;;28.52;13.48;;;;;;;-1.54;67.46;96454.94;4934184;29;20047;-77
2022/03/06 05:36:58;;;;;;;29.20;13.65;;;;;;;-1.55;67.50;96464.03;4934711;29;20091;-76
2022/03/06 05:39:25;;;;;;;28.52;13.45;;;;;;;-1.55;67.50;96464.03;4934034;29;20058;-77
2022/03/06 05:41:51;;;;;;;28.08;13.40;;;;;;;-1.56;67.41;96467.75;4933664;29;20039;-77
2022/03/06 05:44:19;;;;;;;32.90;14.43;;;;;;;-1.58;67.53;96464.47;4934341;29;20053;-76
2022/03/06 05:46:45;;;;;;;35.72;14.93;;;;;;;-1.58;67.52;96464.47;4932711;29;20054;-76
2022/03/06 05:49:15;;;;;;;29.65;13.35;;;;;;;-1.59;67.50;96462.88;4934372;29;20055;-76
2022/03/06 05:51:44;;;;;;;28.27;12.68;;;;;;;-1.60;67.60;96472.75;4933898;29;20051;-77
2022/03/06 05:54:11;;;;;;;28.45;13.77;;;;;;;-1.59;67.54;96474.34;4934388;29;20075;-76
2022/03/06 05:56:39;;;;;;;33.08;14.77;;;;;;;-1.58;67.35;96469.81;4934689;29;20048;-78
2022/03/06 05:59:06;;;;;;;29.85;14.75;;;;;;;-1.59;67.31;96473.53;4934872;29;20047;-75
2022/03/06 06:01:33;;;;;;;34.92;16.90;;;;;;;-1.59;67.12;96473.53;4933947;29;20044;-79
2022/03/06 06:04:00;;;;;;;34.80;15.60;;;;;;;-1.62;67.20;96474.84;4933817;29;20495;-76
2022/03/06 06:06:28;;;;;;;32.13;14.55;;;;;;;-1.64;67.19;96476.13;4933503;29;20043;-78
2022/03/06 06:08:56;;;;;;;29.40;12.93;;;;;;;-1.70;67.11;96479.75;4933097;29;20419;-77
2022/03/06 06:11:22;;;;;;;32.00;13.57;;;;;;;-1.78;66.97;96480.09;4933195;29;20415;-80
2022/03/06 06:13:49;;;;;;;30.52;13.75;;;;;;;-1.88;67.40;96483.38;4933201;29;20520;-78
2022/03/06 06:16:16;;;;;;;32.13;13.77;;;;;;;-2.04;68.05;96484.91;4933962;29;20048;-79
2022/03/06 06:18:42;;;;;;;31.83;14.10;;;;;;;-2.14;68.55;96477.53;4932902;29;20059;-76
2022/03/06 06:21:10;;;;;;;29.27;13.40;;;;;;;-2.16;68.75;96484.13;4933717;29;20074;-77
2022/03/06 06:23:39;;;;;;;28.17;13.57;;;;;;;-2.13;68.87;96487.16;4933679;29;20047;-76
2022/03/06 06:26:05;;;;;;;32.88;14.48;;;;;;;-2.12;69.12;96490.63;4934930;29;20052;-77
2022/03/06 06:28:31;;;;;;;33.30;14.55;;;;;;;-2.15;69.45;96485.75;4936425;29;20054;-76
2022/03/06 06:30:58;;;;;;;29.23;14.18;;;;;;;-2.27;70.01;96483.09;4937324;29;20047;-76
2022/03/06 06:33:24;;;;;;;29.27;13.32;;;;;;;-2.24;70.34;96487.16;4935667;29;20044;-78
2022/03/06 06:35:51;;;;;;;34.83;15.27;;;;;;;-2.15;70.13;96496.41;4934390;29;20047;-77
2022/03/06 06:38:17;;;;;;;34.45;14.60;;;;;;;-2.04;70.27;96492.91;4933418;29;20056;-77
2022/03/06 06:40:45;;;;;;;30.25;14.40;;;;;;;-1.99;70.45;96495.69;4932339;29;20051;-77
2022/03/06 06:43:12;;;;;;;34.33;16.10;;;;;;;-1.90;70.08;96494.28;4933004;29;20054;-78
2022/03/06 06:45:38;;;;;;;40.03;16.80;;;;;;;-1.87;69.98;96498.38;4933769;29;20051;-77
2022/03/06 06:48:06;;;;;;;38.63;16.90;;;;;;;-1.85;69.96;96491.72;4932728;29;20048;-79
2022/03/06 06:50:32;;;;;;;33.65;16.85;;;;;;;-1.77;70.10;96489.75;4933112;29;20051;-78
2022/03/06 06:52:59;;;;;;;34.88;17.98;;;;;;;-1.72;70.18;96490.66;4933664;29;20055;-78
2022/03/06 06:55:25;;;;;;;37.33;17.48;;;;;;;-1.68;70.18;96496.31;4940414;29;20051;-79
2022/03/06 06:57:53;;;;;;;38.10;18.20;;;;;;;-1.67;69.89;96492.59;4931064;29;20043;-79
2022/03/06 07:00:20;;;;;;;40.53;17.25;;;;;;;-1.55;70.10;96496.06;4930597;29;20418;-76
2022/03/06 07:02:46;;;;;;;32.88;15.73;;;;;;;-1.43;69.64;96494.16;4930546;29;20059;-76
2022/03/06 07:05:14;;;;;;;26.90;12.85;;;;;;;-1.30;69.10;96492.25;4929845;29;20075;-82
2022/03/06 07:07:40;;;;;;;28.15;13.48;;;;;;;-1.18;69.00;96501.03;4929694;29;20047;-82
2022/03/06 07:10:08;;;;;;;28.15;12.35;;;;;;;-1.03;68.49;96509.31;4930042;29;20059;-79
2022/03/06 07:12:42;;;;;;;28.35;13.23;;;;;;;-0.90;67.80;96506.31;4930349;29;20056;-83
2022/03/06 07:15:12;;;;;;;27.27;13.25;;;;;;;-0.68;67.67;96503.78;4929710;29;20078;-79
2022/03/06 07:17:38;;;;;;;26.00;12.57;;;;;;;-0.50;67.27;96500.03;4930444;29;20063;-78
2022/03/06 07:20:06;;;;;;;28.05;13.23;;;;;;;-0.34;66.73;96507.22;4927811;29;20054;-80
2022/03/06 07:22:33;;;;;;;28.65;12.88;;;;;;;-0.11;65.38;96510.75;4930029;29;20073;-80
2022/03/06 07:24:59;;;;;;;23.90;12.25;;;;;;;0.06;64.80;96516.91;4928813;29;20066;-79
2022/03/06 07:27:26;;;;;;;25.73;12.52;;;;;;;0.24;63.92;96511.25;4929784;29;20146;-79
2022/03/06 07:29:52;;;;;;;22.58;11.27;;;;;;;0.48;62.77;96513.69;4930565;29;20485;-80
2022/03/06 07:32:20;;;;;;;24.17;12.10;;;;;;;0.65;61.13;96517.09;4928271;29;20051;-79
2022/03/06 07:34:47;;;;;;;24.08;11.40;;;;;;;0.95;59.67;96508.59;4932460;29;20078;-78
2022/03/06 07:37:13;;;;;;;22.23;11.00;;;;;;;1.37;57.88;96505.22;4931324;29;20060;-79
2022/03/06 07:39:40;;;;;;;21.30;10.70;;;;;;;1.80;56.70;96508.75;4932001;29;20059;-78
2022/03/06 07:42:07;;;;;;;23.35;11.15;;;;;;;2.38;54.81;96504.25;4930429;29;20047;-77
2022/03/06 07:44:34;;;;;;;23.27;10.93;;;;;;;2.59;53.75;96508.63;4932171;29;20067;-79
2022/03/06 07:47:00;;;;;;;23.10;11.25;;;;;;;2.47;51.97;96509.94;4932893;29;20086;-78
2022/03/06 07:49:28;;;;;;;20.25;10.43;;;;;;;2.23;52.64;96502.28;4931144;29;20043;-78
2022/03/06 07:51:55;;;;;;;21.58;9.82;;;;;;;2.18;52.96;96502.25;4929612;29;20055;-80
2022/03/06 07:54:21;;;;;;;22.27;10.50;;;;;;;2.33;52.33;96502.34;4930852;29;20205;-78
2022/03/06 07:56:48;;;;;;;18.83;10.15;;;;;;;2.68;50.96;96508.94;4930040;29;20039;-78
2022/03/06 07:59:15;;;;;;;22.42;11.63;;;;;;;2.91;52.09;96506.84;4930312;29;20696;-78
2022/03/06 08:01:42;;;;;;;21.88;10.93;;;;;;;3.22;50.96;96519.28;4930807;29;20054;-78
2022/03/06 08:04:08;;;;;;;20.20;10.48;;;;;;;3.37;49.22;96511.25;4930391;29;20062;-79
2022/03/06 08:06:36;;;;;;;22.58;10.68;;;;;;;3.53;48.26;96522.03;4932582;28;20055;-77
2022/03/06 08:09:04;;;;;;;18.77;10.30;;;;;;;3.71;48.02;96516.09;4929053;29;20759;-78
2022/03/06 08:11:31;;;;;;;20.40;10.75;;;;;;;4.02;47.57;96521.44;4930004;29;20134;-77
2022/03/06 08:13:57;;;;;;;20.65;10.63;;;;;;;4.32;46.72;96525.97;4930300;29;20161;-78
2022/03/06 08:16:24;;;;;;;20.65;10.93;;;;;;;4.77;46.28;96526.91;4930604;29;20520;-78
2022/03/06 08:18:50;;;;;;;27.83;12.68;;;;;;;5.46;44.28;96528.69;4930549;29;20047;-79
2022/03/06 08:21:17;;;;;;;20.85;11.27;;;;;;;5.94;43.19;96524.25;4929693;29;20048;-79
2022/03/06 08:23:45;;;;;;;19.35;10.80;;;;;;;6.37;41.24;96519.00;4930249;29;20076;-77
2022/03/06 08:26:11;;;;;;;16.33;9.27;;;;;;;6.73;41.22;96521.28;4929361;29;20402;-77
2022/03/06 08:28:38;;;;;;;17.80;10.13;;;;;;;7.18;39.19;96516.38;4931603;29;20051;-79
2022/03/06 08:31:04;;;;;;;18.00;9.85;;;;;;;7.62;39.94;96524.13;4932715;29;20051;-79
2022/03/06 08:33:31;;;;;;;18.65;10.20;;;;;;;7.80;37.56;96527.94;4935140;29;20052;-78
2022/03/06 08:35:58;;;;;;;20.20;10.77;;;;;;;7.73;36.97;96524.81;4937514;29;20090;-79
2022/03/06 08:38:24;;;;;;;20.08;10.43;;;;;;;8.01;36.78;96526.50;4934537;29;20051;-78
2022/03/06 08:40:52;;;;;;;21.17;10.10;;;;;;;8.12;36.40;96527.13;4929644;29;20043;-78
2022/03/06 08:43:19;;;;;;;18.70;10.10;;;;;;;8.22;36.41;96520.72;4924048;29;20146;-77
2022/03/06 08:45:45;;;;;;;18.73;10.38;;;;;;;8.26;36.30;96521.75;4950401;29;20479;-78
2022/03/06 08:48:12;;;;;;;19.90;10.18;;;;;;;7.95;35.37;96532.31;4949577;29;20059;-79
2022/03/06 08:50:38;;;;;;;17.60;10.13;;;;;;;8.08;35.88;96520.69;4950877;29;20050;-78
2022/03/06 08:53:06;;;;;;;19.13;10.50;;;;;;;8.31;36.00;96529.78;4949757;29;20093;-78
2022/03/06 08:55:33;;;;;;;18.17;9.63;;;;;;;8.18;35.56;96522.41;4950666;29;20107;-77
2022/03/06 08:58:01;;;;;;;18.52;9.82;;;;;;;8.07;36.59;96519.88;4949892;29;20062;-78
2022/03/06 09:00:27;;;;;;;17.42;9.80;;;;;;;7.79;35.52;96520.91;4949910;29;20106;-78
2022/03/06 09:02:54;;;;;;;18.35;9.75;;;;;;;7.63;35.35;96517.63;4950231;29;20051;-78
2022/03/06 09:05:20;;;;;;;16.30;10.05;;;;;;;7.46;35.52;96531.69;4949235;29;20570;-78
2022/03/06 09:07:47;;;;;;;20.05;9.90;;;;;;;7.05;36.89;96524.16;4949091;29;20091;-78
2022/03/06 09:10:14;;;;;;;19.88;10.27;;;;;;;6.84;37.05;96520.09;4947305;29;20058;-77
2022/03/06 09:12:40;;;;;;;16.83;9.18;;;;;;;6.99;36.46;96528.00;4929175;29;20051;-78
2022/03/06 09:15:12;;;;;;;19.75;10.30;;;;;;;7.12;36.60;96522.97;4928859;29;20419;-77
2022/03/06 09:17:39;;;;;;;17.20;9.43;;;;;;;6.94;36.26;96524.56;4929727;29;20492;-78
2022/03/06 09:20:09;;;;;;;17.92;9.80;;;;;;;6.92;36.41;96521.34;4928264;29;20048;-78
2022/03/06 09:22:36;;;;;;;19.67;9.65;;;;;;;6.69;36.46;96517.56;4932690;29;20573;-77
2022/03/06 09:25:05;;;;;;;23.58;11.25;;;;;;;6.56;36.24;96524.47;4930816;29;20051;-77
2022/03/06 09:27:31;;;;;;;20.33;9.57;;;;;;;6.72;36.81;96522.38;4931882;29;20063;-77
2022/03/06 09:29:58;;;;;;;26.58;10.50;;;;;;;6.82;35.94;96527.69;4931691;29;20052;-77
2022/03/06 09:32:25;;;;;;;43.33;11.23;;;;;;;7.02;36.02;96527.44;4931747;29;20538;-78
2022/03/06 09:34:52;;;;;;;16.80;9.18;;;;;;;7.09;35.23;96526.25;4932062;29;20044;-78
2022/03/06 09:37:18;;;;;;;16.05;8.90;;;;;;;7.15;35.53;96522.38;4930426;29;20138;-78
2022/03/06 09:39:45;;;;;;;15.60;9.10;;;;;;;7.22;35.36;96520.13;4932360;29;20055;-78
2022/03/06 09:42:12;;;;;;;22.52;9.73;;;;;;;7.35;34.77;96522.09;4930849;29;20058;-78
2022/03/06 09:44:39;;;;;;;18.30;8.90;;;;;;;7.41;33.74;96512.78;4931752;29;20050;-76
2022/03/06 09:47:06;;;;;;;15.02;8.57;;;;;;;7.15;34.12;96525.91;4930106;29;20701;-77
2022/03/06 09:49:36;;;;;;;16.85;9.40;;;;;;;7.05;34.45;96526.84;4931923;29;20048;-76
2022/03/06 09:52:03;;;;;;;16.95;8.55;;;;;;;7.13;34.50;96521.88;4930479;29;20052;-77
2022/03/06 09:54:30;;;;;;;16.83;8.65;;;;;;;7.20;33.96;96522.31;4930933;29;20055;-76
2022/03/06 09:56:57;;;;;;;17.90;9.15;;;;;;;7.21;33.74;96526.66;4930984;29;20047;-77
2022/03/06 09:59:23;;;;;;;30.00;11.13;;;;;;;7.24;33.46;96534.19;4929420;29;20110;-76
2022/03/06 10:01:50;;;;;;;19.00;9.27;;;;;;;7.48;32.70;96529.50;4930996;29;20043;-78
2022/03/06 10:04:21;;;;;;;37.45;11.40;;;;;;;7.83;34.14;96524.66;4929779;29;20082;-77
2022/03/06 10:06:58;;;;;;;36.28;11.25;;;;;;;8.22;34.27;96526.16;4930781;29;20103;-77
2022/03/06 10:09:24;;;;;;;18.17;8.82;;;;;;;8.39;31.89;96531.81;4929394;29;20129;-76
2022/03/06 10:11:52;;;;;;;15.85;8.73;;;;;;;8.65;32.66;96529.44;4932078;29;20055;-76
2022/03/06 10:14:34;;;;;;;23.98;10.45;;;;;;;8.69;31.98;96529.66;4930187;29;20095;-76
2022/03/06 10:17:13;;;;;;;14.10;8.10;;;;;;;8.80;31.01;96525.63;4928694;29;20051;-77
2022/03/06 10:19:54;;;;;;;44.10;10.90;;;;;;;8.85;31.99;96528.25;4929516;29;20047;-77
2022/03/06 10:22:24;;;;;;;14.85;8.95;;;;;;;8.76;30.83;96540.91;4929661;29;20617;-77
2022/03/06 10:24:52;;;;;;;27.15;9.50;;;;;;;8.79;31.15;96522.13;4931246;29;20056;-78
2022/03/06 10:27:49;;;;;;;13.52;7.97;;;;;;;8.59;31.69;96526.03;4930017;29;20499;-78
2022/03/06 10:30:27;;;;;;;16.98;8.80;;;;;;;8.62;31.59;96525.44;4930999;29;20075;-78
2022/03/06 10:32:55;;;;;;;24.75;9.88;;;;;;;8.47;32.79;96523.00;4931182;29;20131;-77
2022/03/06 10:35:26;;;;;;;42.75;10.95;;;;;;;8.36;32.21;96516.97;4921307;29;20809;-77
2022/03/06 10:37:54;;;;;;;41.38;11.40;;;;;;;8.45;33.29;96522.47;4930194;29;20056;-76
2022/03/06 10:40:33;;;;;;;87.28;15.32;;;;;;;8.50;31.86;96521.59;4926002;29;20680;-76
2022/03/06 10:43:00;;;;;;;88.53;12.30;;;;;;;8.32;31.80;96526.78;4915386;29;20051;-76
2022/03/06 10:45:26;;;;;;;72.85;10.95;;;;;;;7.97;32.10;96533.59;4927524;29;20696;-76
2022/03/06 10:47:53;;;;;;;14.77;8.35;;;;;;;7.71;33.40;96525.06;4929633;29;20052;-75
2022/03/06 10:50:22;;;;;;;14.95;7.68;;;;;;;7.75;31.14;96528.00;4929309;29;20098;-76
2022/03/06 10:52:53;;;;;;;12.77;8.27;;;;;;;7.80;31.40;96519.81;4929848;29;20571;-76
2022/03/06 10:55:34;;;;;;;26.40;8.63;;;;;;;7.84;30.72;96520.81;4929576;29;20130;-77
2022/03/06 10:58:01;;;;;;;17.10;8.50;;;;;;;7.72;31.54;96517.75;4929330;29;20048;-76
2022/03/06 11:00:29;;;;;;;17.38;10.40;;;;;;;7.58;32.51;96518.50;4930273;29;20059;-76
2022/03/06 11:02:56;;;;;;;14.45;8.45;;;;;;;7.64;32.29;96521.94;4928646;29;20054;-76
2022/03/06 11:05:25;;;;;;;15.02;7.93;;;;;;;7.56;32.30;96509.84;4929780;29;20496;-75
2022/03/06 11:07:52;;;;;;;13.95;8.20;;;;;;;7.69;32.75;96512.94;4929239;29;20519;-75
2022/03/06 11:10:20;;;;;;;61.58;11.65;;;;;;;7.67;33.50;96504.28;4928799;29;20051;-76
2022/03/06 11:12:48;;;;;;;53.95;9.95;;;;;;;7.78;32.58;96498.41;4927578;29;20126;-76
2022/03/06 11:15:14;;;;;;;13.52;7.57;;;;;;;7.70;31.50;96506.41;4928062;29;20277;-76
2022/03/06 11:17:45;;;;;;;14.13;6.95;;;;;;;7.75;31.47;96500.91;4929354;29;20056;-76
2022/03/06 11:20:12;;;;;;;15.18;8.00;;;;;;;7.80;31.88;96508.97;4930088;29;20052;-75
2022/03/06 11:22:51;;;;;;;14.35;8.23;;;;;;;7.72;30.88;96501.47;4930713;29;20506;-76